Watertown, WI

8:33 PM CST on February 27, 2015 (GMT -0600)
K9LUK's Station | Change Station
CLOSE
Current Station
Personal Weather Station
Location: Watertown, WI
Elevation: 834 ft
Nearby Weather Stations

Elev 834 ft 43.20 °N, 88.75 °W | Updated 28 seconds ago

Clear
Clear
6.1 °F
Feels Like 6 °F
N
0.0
Wind Variable Wind from SSE
Gusts 0.0 mph

Today
High -- | Low -- °F
--% Chance of Precip.
Yesterday
High -- | Low -- °F
Precip. -- in
6:34 AM 5:41 PM
Waxing Gibbous, 73% visible
Pressure 30.58 in
Visibility 10.0 miles
Clouds Clear
Windchill 6 °F
Dew Point -6 °F
Humidity 57%
Rainfall 0.00 in
Snow Depth Not available.
UV 0 out of 12
Pollen .50 out of 12
Air Quality Not available.
Flu Activity Not available.
METAR KRYV 280215Z AUTO 21004KT 10SM CLR M15/M20 A3058 RMK AO2 T11471200

More Conditions Fewer Conditions

Pressure 30.58 in
Visibility 10.0 miles
Clouds Clear
Windchill 6 °F
Dew Point -6 °F
Humidity 57%
Rainfall 0.00 in
Snow Depth Not available.
UV 0 out of 12
Pollen .50 out of 12
Air Quality Not available.
Flu Activity Not available.
METAR KRYV 280215Z AUTO 21004KT 10SM CLR M15/M20 A3058 RMK AO2 T11471200

More Conditions Fewer Conditions

10-Day Weather Forecast

Almanac

Astronomy

Feb. 27, 2015 Rise Set
Actual Time
Civil Twilight
Nautical Twilight
Astronomical Twilight
Moon
Length of Visible Light
Length of Day
Tomorrow will be .
, % of the Moon is Illuminated

Today's Extremes

State Highs State Lows

Community

WunderPhotos

Upload Photos

1,800,938 photos uploaded!

WunderBlogs® & News

Nearby

Air Quality

  Air Quality AQ Index Pollutant
Not available.

Snow Depth

Station Depth Elevation

Earthquake Activity

City Distance Mag. Time & Date
Minimum magnitude displayed is 2.5.

Coastal Water Temperatures

Place Temperature

Nearby Weather Stations